sensor_id;sensor_type;location;lat;lon;timestamp;P1;durP1;ratioP1;P2;durP2;ratioP2
47669;SDS011;33408;52.062;11.722;2023-03-01T00:01:35;16.77;;;11.05;;
47669;SDS011;33408;52.062;11.722;2023-03-01T00:04:02;15.68;;;11.63;;
47669;SDS011;33408;52.062;11.722;2023-03-01T00:06:29;17.42;;;12.93;;
47669;SDS011;33408;52.062;11.722;2023-03-01T00:08:57;20.52;;;13.20;;
47669;SDS011;33408;52.062;11.722;2023-03-01T00:11:24;18.65;;;13.52;;
47669;SDS011;33408;52.062;11.722;2023-03-01T00:13:52;24.45;;;13.50;;
47669;SDS011;33408;52.062;11.722;2023-03-01T00:16:22;20.70;;;14.32;;
47669;SDS011;33408;52.062;11.722;2023-03-01T00:18:51;21.30;;;13.60;;
47669;SDS011;33408;52.062;11.722;2023-03-01T00:21:19;22.08;;;14.10;;
47669;SDS011;33408;52.062;11.722;2023-03-01T00:23:47;22.65;;;14.70;;
47669;SDS011;33408;52.062;11.722;2023-03-01T00:26:16;19.75;;;13.90;;
47669;SDS011;33408;52.062;11.722;2023-03-01T00:28:43;19.33;;;13.13;;
47669;SDS011;33408;52.062;11.722;2023-03-01T00:31:11;22.23;;;13.98;;
47669;SDS011;33408;52.062;11.722;2023-03-01T00:33:39;21.67;;;14.20;;
47669;SDS011;33408;52.062;11.722;2023-03-01T00:36:07;22.65;;;13.77;;
47669;SDS011;33408;52.062;11.722;2023-03-01T00:38:34;14.93;;;11.27;;
47669;SDS011;33408;52.062;11.722;2023-03-01T00:41:05;18.50;;;11.75;;
47669;SDS011;33408;52.062;11.722;2023-03-01T00:43:34;15.82;;;10.23;;
47669;SDS011;33408;52.062;11.722;2023-03-01T00:46:01;16.70;;;10.80;;
47669;SDS011;33408;52.062;11.722;2023-03-01T00:48:29;16.10;;;11.23;;
47669;SDS011;33408;52.062;11.722;2023-03-01T00:50:55;18.17;;;12.25;;
47669;SDS011;33408;52.062;11.722;2023-03-01T00:53:22;16.88;;;11.57;;
47669;SDS011;33408;52.062;11.722;2023-03-01T00:55:48;18.73;;;12.23;;
47669;SDS011;33408;52.062;11.722;2023-03-01T00:58:15;18.52;;;11.68;;
47669;SDS011;33408;52.062;11.722;2023-03-01T01:00:43;17.95;;;11.88;;
47669;SDS011;33408;52.062;11.722;2023-03-01T01:03:10;19.60;;;13.63;;
47669;SDS011;33408;52.062;11.722;2023-03-01T01:05:36;21.73;;;14.38;;
47669;SDS011;33408;52.062;11.722;2023-03-01T01:08:03;20.85;;;14.10;;
47669;SDS011;33408;52.062;11.722;2023-03-01T01:10:29;17.27;;;12.48;;
47669;SDS011;33408;52.062;11.722;2023-03-01T01:12:56;15.38;;;10.80;;
47669;SDS011;33408;52.062;11.722;2023-03-01T01:15:23;17.92;;;11.93;;
47669;SDS011;33408;52.062;11.722;2023-03-01T01:17:51;18.75;;;11.85;;
47669;SDS011;33408;52.062;11.722;2023-03-01T01:20:17;19.23;;;12.25;;
47669;SDS011;33408;52.062;11.722;2023-03-01T01:22:44;16.35;;;11.63;;
47669;SDS011;33408;52.062;11.722;2023-03-01T01:25:11;19.88;;;13.25;;
47669;SDS011;33408;52.062;11.722;2023-03-01T01:27:37;16.98;;;13.13;;
47669;SDS011;33408;52.062;11.722;2023-03-01T01:30:04;19.75;;;12.35;;
47669;SDS011;33408;52.062;11.722;2023-03-01T01:32:31;17.42;;;11.90;;
47669;SDS011;33408;52.062;11.722;2023-03-01T01:34:59;20.33;;;12.05;;
47669;SDS011;33408;52.062;11.722;2023-03-01T01:37:26;16.58;;;11.70;;
47669;SDS011;33408;52.062;11.722;2023-03-01T01:39:56;18.83;;;11.88;;
47669;SDS011;33408;52.062;11.722;2023-03-01T01:42:22;22.80;;;12.10;;
47669;SDS011;33408;52.062;11.722;2023-03-01T01:47:52;17.27;;;11.40;;
47669;SDS011;33408;52.062;11.722;2023-03-01T01:50:21;17.05;;;11.82;;
47669;SDS011;33408;52.062;11.722;2023-03-01T01:56:11;20.45;;;12.75;;
47669;SDS011;33408;52.062;11.722;2023-03-01T01:58:40;17.90;;;12.73;;
47669;SDS011;33408;52.062;11.722;2023-03-01T02:01:09;19.48;;;12.20;;
47669;SDS011;33408;52.062;11.722;2023-03-01T02:03:37;22.33;;;13.07;;
47669;SDS011;33408;52.062;11.722;2023-03-01T02:06:12;20.70;;;12.38;;
47669;SDS011;33408;52.062;11.722;2023-03-01T02:08:45;22.55;;;14.57;;
47669;SDS011;33408;52.062;11.722;2023-03-01T02:11:15;20.73;;;13.95;;
47669;SDS011;33408;52.062;11.722;2023-03-01T02:13:44;23.30;;;13.75;;
47669;SDS011;33408;52.062;11.722;2023-03-01T02:16:13;24.75;;;14.48;;
47669;SDS011;33408;52.062;11.722;2023-03-01T02:18:41;22.73;;;13.60;;
47669;SDS011;33408;52.062;11.722;2023-03-01T02:21:14;23.33;;;14.77;;
47669;SDS011;33408;52.062;11.722;2023-03-01T02:23:51;22.02;;;13.85;;
47669;SDS011;33408;52.062;11.722;2023-03-01T02:26:23;22.45;;;13.65;;
47669;SDS011;33408;52.062;11.722;2023-03-01T02:28:57;19.60;;;13.75;;
47669;SDS011;33408;52.062;11.722;2023-03-01T02:31:24;23.30;;;14.75;;
47669;SDS011;33408;52.062;11.722;2023-03-01T02:34:11;19.30;;;12.90;;
47669;SDS011;33408;52.062;11.722;2023-03-01T02:36:41;20.75;;;13.50;;
47669;SDS011;33408;52.062;11.722;2023-03-01T02:39:13;19.38;;;13.00;;
47669;SDS011;33408;52.062;11.722;2023-03-01T02:41:44;19.98;;;12.55;;
47669;SDS011;33408;52.062;11.722;2023-03-01T02:44:14;20.13;;;13.02;;
47669;SDS011;33408;52.062;11.722;2023-03-01T02:46:42;18.60;;;12.57;;
47669;SDS011;33408;52.062;11.722;2023-03-01T02:49:20;21.65;;;13.15;;
47669;SDS011;33408;52.062;11.722;2023-03-01T02:51:52;21.65;;;12.73;;
47669;SDS011;33408;52.062;11.722;2023-03-01T02:54:31;20.30;;;13.13;;
47669;SDS011;33408;52.062;11.722;2023-03-01T02:57:02;18.77;;;13.35;;
47669;SDS011;33408;52.062;11.722;2023-03-01T02:59:31;19.30;;;13.63;;
47669;SDS011;33408;52.062;11.722;2023-03-01T03:02:04;17.80;;;12.70;;
47669;SDS011;33408;52.062;11.722;2023-03-01T03:04:30;22.00;;;13.45;;
47669;SDS011;33408;52.062;11.722;2023-03-01T03:06:57;21.15;;;13.90;;
47669;SDS011;33408;52.062;11.722;2023-03-01T03:09:24;19.38;;;13.20;;
47669;SDS011;33408;52.062;11.722;2023-03-01T03:11:50;18.95;;;13.43;;
47669;SDS011;33408;52.062;11.722;2023-03-01T03:14:17;20.58;;;12.93;;
47669;SDS011;33408;52.062;11.722;2023-03-01T03:16:45;21.70;;;12.80;;
47669;SDS011;33408;52.062;11.722;2023-03-01T03:19:13;18.42;;;12.77;;
47669;SDS011;33408;52.062;11.722;2023-03-01T03:21:41;19.73;;;12.98;;
47669;SDS011;33408;52.062;11.722;2023-03-01T03:24:08;18.85;;;12.27;;
47669;SDS011;33408;52.062;11.722;2023-03-01T03:26:35;20.90;;;12.93;;
47669;SDS011;33408;52.062;11.722;2023-03-01T03:29:02;21.77;;;12.77;;
47669;SDS011;33408;52.062;11.722;2023-03-01T03:31:29;20.23;;;13.65;;
47669;SDS011;33408;52.062;11.722;2023-03-01T03:33:57;27.42;;;14.38;;
47669;SDS011;33408;52.062;11.722;2023-03-01T03:36:24;21.13;;;12.95;;
47669;SDS011;33408;52.062;11.722;2023-03-01T03:38:51;19.85;;;13.45;;
47669;SDS011;33408;52.062;11.722;2023-03-01T03:41:17;21.00;;;13.38;;
47669;SDS011;33408;52.062;11.722;2023-03-01T03:43:44;18.33;;;13.18;;
47669;SDS011;33408;52.062;11.722;2023-03-01T03:46:11;20.73;;;13.48;;
47669;SDS011;33408;52.062;11.722;2023-03-01T03:48:39;20.20;;;13.55;;
47669;SDS011;33408;52.062;11.722;2023-03-01T03:51:09;18.08;;;12.93;;
47669;SDS011;33408;52.062;11.722;2023-03-01T03:53:36;22.30;;;14.73;;
47669;SDS011;33408;52.062;11.722;2023-03-01T03:56:03;20.13;;;13.20;;
47669;SDS011;33408;52.062;11.722;2023-03-01T03:58:30;18.77;;;13.75;;
47669;SDS011;33408;52.062;11.722;2023-03-01T04:00:57;19.30;;;13.27;;
47669;SDS011;33408;52.062;11.722;2023-03-01T04:03:24;21.67;;;13.48;;
47669;SDS011;33408;52.062;11.722;2023-03-01T04:05:51;19.38;;;12.95;;
47669;SDS011;33408;52.062;11.722;2023-03-01T04:08:20;20.73;;;12.45;;
47669;SDS011;33408;52.062;11.722;2023-03-01T04:10:48;21.52;;;13.35;;
47669;SDS011;33408;52.062;11.722;2023-03-01T04:13:17;18.38;;;12.27;;
47669;SDS011;33408;52.062;11.722;2023-03-01T04:15:45;19.52;;;12.18;;
47669;SDS011;33408;52.062;11.722;2023-03-01T04:18:12;16.80;;;12.20;;
47669;SDS011;33408;52.062;11.722;2023-03-01T04:20:40;20.95;;;11.85;;
47669;SDS011;33408;52.062;11.722;2023-03-01T04:23:08;18.05;;;12.18;;
47669;SDS011;33408;52.062;11.722;2023-03-01T04:25:44;19.08;;;13.27;;
47669;SDS011;33408;52.062;11.722;2023-03-01T04:28:14;18.33;;;12.23;;
47669;SDS011;33408;52.062;11.722;2023-03-01T04:30:41;19.52;;;13.05;;
47669;SDS011;33408;52.062;11.722;2023-03-01T04:33:08;20.15;;;11.70;;
47669;SDS011;33408;52.062;11.722;2023-03-01T04:35:36;16.40;;;11.15;;
47669;SDS011;33408;52.062;11.722;2023-03-01T04:38:03;17.70;;;12.30;;
47669;SDS011;33408;52.062;11.722;2023-03-01T04:40:30;23.00;;;12.82;;
47669;SDS011;33408;52.062;11.722;2023-03-01T04:42:59;17.35;;;11.48;;
47669;SDS011;33408;52.062;11.722;2023-03-01T04:45:25;20.05;;;12.02;;
47669;SDS011;33408;52.062;11.722;2023-03-01T04:47:52;20.63;;;12.43;;
47669;SDS011;33408;52.062;11.722;2023-03-01T04:50:19;19.05;;;12.05;;
47669;SDS011;33408;52.062;11.722;2023-03-01T04:52:48;21.63;;;12.18;;
47669;SDS011;33408;52.062;11.722;2023-03-01T04:55:15;23.00;;;11.32;;
47669;SDS011;33408;52.062;11.722;2023-03-01T04:57:42;18.92;;;10.85;;
47669;SDS011;33408;52.062;11.722;2023-03-01T05:00:12;20.35;;;11.57;;
47669;SDS011;33408;52.062;11.722;2023-03-01T05:02:49;17.48;;;11.65;;
47669;SDS011;33408;52.062;11.722;2023-03-01T05:05:22;17.42;;;11.18;;
47669;SDS011;33408;52.062;11.722;2023-03-01T05:07:51;15.80;;;11.15;;
47669;SDS011;33408;52.062;11.722;2023-03-01T05:10:19;16.13;;;11.20;;
47669;SDS011;33408;52.062;11.722;2023-03-01T05:12:45;21.35;;;10.98;;
47669;SDS011;33408;52.062;11.722;2023-03-01T05:15:14;16.35;;;11.23;;
47669;SDS011;33408;52.062;11.722;2023-03-01T05:17:41;17.52;;;11.38;;
47669;SDS011;33408;52.062;11.722;2023-03-01T05:20:08;15.90;;;11.73;;
47669;SDS011;33408;52.062;11.722;2023-03-01T05:22:35;16.13;;;10.88;;
47669;SDS011;33408;52.062;11.722;2023-03-01T05:25:03;19.70;;;12.20;;
47669;SDS011;33408;52.062;11.722;2023-03-01T05:27:30;20.15;;;12.02;;
47669;SDS011;33408;52.062;11.722;2023-03-01T05:29:56;20.80;;;11.40;;
47669;SDS011;33408;52.062;11.722;2023-03-01T05:32:24;19.92;;;12.07;;
47669;SDS011;33408;52.062;11.722;2023-03-01T05:34:51;20.35;;;12.43;;
47669;SDS011;33408;52.062;11.722;2023-03-01T05:37:19;21.83;;;11.60;;
47669;SDS011;33408;52.062;11.722;2023-03-01T05:39:45;18.55;;;11.07;;
47669;SDS011;33408;52.062;11.722;2023-03-01T05:42:15;17.63;;;11.98;;
47669;SDS011;33408;52.062;11.722;2023-03-01T05:44:42;19.95;;;11.73;;
47669;SDS011;33408;52.062;11.722;2023-03-01T05:47:08;20.55;;;12.55;;
47669;SDS011;33408;52.062;11.722;2023-03-01T05:49:36;16.20;;;11.05;;
47669;SDS011;33408;52.062;11.722;2023-03-01T05:52:03;19.02;;;12.52;;
47669;SDS011;33408;52.062;11.722;2023-03-01T05:54:29;17.42;;;11.60;;
47669;SDS011;33408;52.062;11.722;2023-03-01T05:56:56;20.60;;;12.93;;
47669;SDS011;33408;52.062;11.722;2023-03-01T05:59:23;18.17;;;12.07;;
47669;SDS011;33408;52.062;11.722;2023-03-01T06:01:49;21.60;;;12.48;;
47669;SDS011;33408;52.062;11.722;2023-03-01T06:04:16;25.85;;;16.70;;
47669;SDS011;33408;52.062;11.722;2023-03-01T06:06:44;21.88;;;14.38;;
47669;SDS011;33408;52.062;11.722;2023-03-01T06:09:10;18.40;;;13.43;;
47669;SDS011;33408;52.062;11.722;2023-03-01T06:11:37;20.75;;;13.23;;
47669;SDS011;33408;52.062;11.722;2023-03-01T06:14:05;22.38;;;12.75;;
47669;SDS011;33408;52.062;11.722;2023-03-01T06:16:32;23.98;;;13.73;;
47669;SDS011;33408;52.062;11.722;2023-03-01T06:18:59;18.55;;;12.05;;
47669;SDS011;33408;52.062;11.722;2023-03-01T06:21:26;22.77;;;11.93;;
47669;SDS011;33408;52.062;11.722;2023-03-01T06:23:54;20.00;;;10.02;;
47669;SDS011;33408;52.062;11.722;2023-03-01T06:26:20;20.70;;;10.98;;
47669;SDS011;33408;52.062;11.722;2023-03-01T06:28:47;19.33;;;11.73;;
47669;SDS011;33408;52.062;11.722;2023-03-01T06:31:13;18.40;;;11.13;;
47669;SDS011;33408;52.062;11.722;2023-03-01T06:33:40;18.85;;;10.32;;
47669;SDS011;33408;52.062;11.722;2023-03-01T06:36:07;22.42;;;12.25;;
47669;SDS011;33408;52.062;11.722;2023-03-01T06:38:35;19.83;;;12.70;;
47669;SDS011;33408;52.062;11.722;2023-03-01T06:41:03;17.30;;;13.07;;
47669;SDS011;33408;52.062;11.722;2023-03-01T06:43:30;19.85;;;13.23;;
47669;SDS011;33408;52.062;11.722;2023-03-01T06:45:57;21.40;;;13.75;;
47669;SDS011;33408;52.062;11.722;2023-03-01T06:48:23;19.73;;;13.30;;
47669;SDS011;33408;52.062;11.722;2023-03-01T06:50:50;25.63;;;15.00;;
47669;SDS011;33408;52.062;11.722;2023-03-01T06:53:16;23.33;;;14.70;;
47669;SDS011;33408;52.062;11.722;2023-03-01T06:55:43;18.63;;;13.38;;
47669;SDS011;33408;52.062;11.722;2023-03-01T06:58:11;25.13;;;14.15;;
47669;SDS011;33408;52.062;11.722;2023-03-01T07:00:38;19.42;;;12.60;;
47669;SDS011;33408;52.062;11.722;2023-03-01T07:03:05;18.38;;;12.23;;
47669;SDS011;33408;52.062;11.722;2023-03-01T07:05:33;21.02;;;13.25;;
47669;SDS011;33408;52.062;11.722;2023-03-01T07:07:59;23.67;;;14.02;;
47669;SDS011;33408;52.062;11.722;2023-03-01T07:10:26;20.35;;;13.07;;
47669;SDS011;33408;52.062;11.722;2023-03-01T07:12:56;21.08;;;12.52;;
47669;SDS011;33408;52.062;11.722;2023-03-01T07:15:25;20.05;;;12.20;;
47669;SDS011;33408;52.062;11.722;2023-03-01T07:17:52;17.90;;;11.73;;
47669;SDS011;33408;52.062;11.722;2023-03-01T07:20:20;17.45;;;11.65;;
47669;SDS011;33408;52.062;11.722;2023-03-01T07:22:49;23.42;;;12.25;;
47669;SDS011;33408;52.062;11.722;2023-03-01T07:25:16;20.05;;;10.90;;
47669;SDS011;33408;52.062;11.722;2023-03-01T07:27:43;20.15;;;12.30;;
47669;SDS011;33408;52.062;11.722;2023-03-01T07:30:10;21.73;;;11.68;;
47669;SDS011;33408;52.062;11.722;2023-03-01T07:32:38;19.23;;;11.88;;
47669;SDS011;33408;52.062;11.722;2023-03-01T07:35:05;18.20;;;11.45;;
47669;SDS011;33408;52.062;11.722;2023-03-01T07:37:32;19.92;;;11.57;;
47669;SDS011;33408;52.062;11.722;2023-03-01T07:39:59;19.60;;;12.73;;
47669;SDS011;33408;52.062;11.722;2023-03-01T07:42:25;18.23;;;12.02;;
47669;SDS011;33408;52.062;11.722;2023-03-01T07:44:52;18.52;;;11.48;;
47669;SDS011;33408;52.062;11.722;2023-03-01T07:47:18;17.83;;;12.98;;
47669;SDS011;33408;52.062;11.722;2023-03-01T07:49:46;21.00;;;12.73;;
47669;SDS011;33408;52.062;11.722;2023-03-01T07:52:13;18.02;;;12.55;;
47669;SDS011;33408;52.062;11.722;2023-03-01T07:54:42;16.75;;;11.82;;
47669;SDS011;33408;52.062;11.722;2023-03-01T07:57:09;19.63;;;12.13;;
47669;SDS011;33408;52.062;11.722;2023-03-01T07:59:36;16.20;;;10.80;;
47669;SDS011;33408;52.062;11.722;2023-03-01T08:02:03;16.00;;;10.63;;
47669;SDS011;33408;52.062;11.722;2023-03-01T08:04:29;16.98;;;10.25;;
47669;SDS011;33408;52.062;11.722;2023-03-01T08:06:57;17.75;;;11.18;;
47669;SDS011;33408;52.062;11.722;2023-03-01T08:09:24;14.90;;;10.27;;
47669;SDS011;33408;52.062;11.722;2023-03-01T08:11:51;19.77;;;10.40;;
47669;SDS011;33408;52.062;11.722;2023-03-01T08:14:19;16.00;;;10.23;;
47669;SDS011;33408;52.062;11.722;2023-03-01T08:16:48;17.63;;;10.77;;
47669;SDS011;33408;52.062;11.722;2023-03-01T08:19:15;16.58;;;10.63;;
47669;SDS011;33408;52.062;11.722;2023-03-01T08:21:42;20.42;;;12.27;;
47669;SDS011;33408;52.062;11.722;2023-03-01T08:24:09;19.80;;;11.50;;
47669;SDS011;33408;52.062;11.722;2023-03-01T08:26:36;19.40;;;11.73;;
47669;SDS011;33408;52.062;11.722;2023-03-01T08:29:03;15.80;;;11.05;;
47669;SDS011;33408;52.062;11.722;2023-03-01T08:31:30;18.20;;;10.95;;
47669;SDS011;33408;52.062;11.722;2023-03-01T08:34:00;19.05;;;11.07;;
47669;SDS011;33408;52.062;11.722;2023-03-01T08:36:29;18.35;;;10.25;;
47669;SDS011;33408;52.062;11.722;2023-03-01T08:38:57;14.52;;;11.38;;
47669;SDS011;33408;52.062;11.722;2023-03-01T08:41:25;18.17;;;11.13;;
47669;SDS011;33408;52.062;11.722;2023-03-01T08:43:52;16.27;;;11.45;;
47669;SDS011;33408;52.062;11.722;2023-03-01T08:46:23;16.98;;;11.05;;
47669;SDS011;33408;52.062;11.722;2023-03-01T08:48:50;17.55;;;10.98;;
47669;SDS011;33408;52.062;11.722;2023-03-01T08:51:17;16.50;;;11.10;;
47669;SDS011;33408;52.062;11.722;2023-03-01T08:53:45;14.40;;;10.25;;
47669;SDS011;33408;52.062;11.722;2023-03-01T08:56:12;18.15;;;11.73;;
47669;SDS011;33408;52.062;11.722;2023-03-01T08:58:42;18.65;;;11.52;;
47669;SDS011;33408;52.062;11.722;2023-03-01T09:01:11;17.17;;;10.43;;
47669;SDS011;33408;52.062;11.722;2023-03-01T09:03:40;14.90;;;10.43;;
47669;SDS011;33408;52.062;11.722;2023-03-01T09:06:07;15.80;;;9.63;;
47669;SDS011;33408;52.062;11.722;2023-03-01T09:08:34;16.25;;;10.52;;
47669;SDS011;33408;52.062;11.722;2023-03-01T09:11:01;14.98;;;9.50;;
47669;SDS011;33408;52.062;11.722;2023-03-01T09:13:28;16.23;;;11.02;;
47669;SDS011;33408;52.062;11.722;2023-03-01T09:15:57;15.05;;;9.77;;
47669;SDS011;33408;52.062;11.722;2023-03-01T09:18:24;15.60;;;10.15;;
47669;SDS011;33408;52.062;11.722;2023-03-01T09:20:50;16.92;;;10.10;;
47669;SDS011;33408;52.062;11.722;2023-03-01T09:23:19;17.30;;;10.32;;
47669;SDS011;33408;52.062;11.722;2023-03-01T09:25:46;17.38;;;10.32;;
47669;SDS011;33408;52.062;11.722;2023-03-01T09:28:13;13.63;;;8.95;;
47669;SDS011;33408;52.062;11.722;2023-03-01T09:30:39;18.70;;;9.48;;
47669;SDS011;33408;52.062;11.722;2023-03-01T09:33:07;15.80;;;9.32;;
47669;SDS011;33408;52.062;11.722;2023-03-01T09:35:39;14.60;;;9.48;;
47669;SDS011;33408;52.062;11.722;2023-03-01T09:38:11;15.18;;;9.38;;
47669;SDS011;33408;52.062;11.722;2023-03-01T09:40:41;13.20;;;9.50;;
47669;SDS011;33408;52.062;11.722;2023-03-01T09:45:41;12.60;;;8.70;;
47669;SDS011;33408;52.062;11.722;2023-03-01T09:48:15;14.88;;;9.52;;
47669;SDS011;33408;52.062;11.722;2023-03-01T09:50:44;12.70;;;8.40;;
47669;SDS011;33408;52.062;11.722;2023-03-01T09:53:13;14.35;;;8.43;;
47669;SDS011;33408;52.062;11.722;2023-03-01T09:55:42;11.80;;;7.53;;
47669;SDS011;33408;52.062;11.722;2023-03-01T09:58:21;15.20;;;7.95;;
47669;SDS011;33408;52.062;11.722;2023-03-01T10:00:56;13.27;;;8.00;;
47669;SDS011;33408;52.062;11.722;2023-03-01T10:03:28;10.60;;;7.07;;
47669;SDS011;33408;52.062;11.722;2023-03-01T10:06:04;10.45;;;6.85;;
47669;SDS011;33408;52.062;11.722;2023-03-01T10:11:12;10.35;;;6.10;;
47669;SDS011;33408;52.062;11.722;2023-03-01T10:13:46;12.65;;;7.00;;
47669;SDS011;33408;52.062;11.722;2023-03-01T10:16:21;17.25;;;7.35;;
47669;SDS011;33408;52.062;11.722;2023-03-01T10:18:53;10.07;;;6.50;;
47669;SDS011;33408;52.062;11.722;2023-03-01T10:21:25;11.80;;;6.35;;
47669;SDS011;33408;52.062;11.722;2023-03-01T10:23:53;12.07;;;6.10;;
47669;SDS011;33408;52.062;11.722;2023-03-01T10:26:26;13.95;;;5.93;;
47669;SDS011;33408;52.062;11.722;2023-03-01T10:29:04;13.30;;;5.82;;
47669;SDS011;33408;52.062;11.722;2023-03-01T10:31:36;11.98;;;6.53;;
47669;SDS011;33408;52.062;11.722;2023-03-01T10:34:11;11.60;;;6.07;;
47669;SDS011;33408;52.062;11.722;2023-03-01T10:36:40;11.60;;;6.05;;
47669;SDS011;33408;52.062;11.722;2023-03-01T10:39:12;11.40;;;6.53;;
47669;SDS011;33408;52.062;11.722;2023-03-01T10:41:49;11.32;;;5.85;;
47669;SDS011;33408;52.062;11.722;2023-03-01T10:44:40;11.10;;;6.22;;
47669;SDS011;33408;52.062;11.722;2023-03-01T10:47:13;11.57;;;6.60;;
47669;SDS011;33408;52.062;11.722;2023-03-01T10:49:52;9.20;;;5.25;;
47669;SDS011;33408;52.062;11.722;2023-03-01T10:52:21;13.63;;;7.20;;
47669;SDS011;33408;52.062;11.722;2023-03-01T10:54:51;11.00;;;6.13;;
47669;SDS011;33408;52.062;11.722;2023-03-01T11:00:18;11.48;;;6.60;;
47669;SDS011;33408;52.062;11.722;2023-03-01T11:02:47;12.98;;;6.82;;
47669;SDS011;33408;52.062;11.722;2023-03-01T11:05:23;11.52;;;5.97;;
47669;SDS011;33408;52.062;11.722;2023-03-01T11:07:51;9.90;;;6.13;;
47669;SDS011;33408;52.062;11.722;2023-03-01T11:10:21;11.27;;;6.72;;
47669;SDS011;33408;52.062;11.722;2023-03-01T11:12:50;10.68;;;5.72;;
47669;SDS011;33408;52.062;11.722;2023-03-01T11:15:25;9.70;;;6.25;;
47669;SDS011;33408;52.062;11.722;2023-03-01T11:17:53;11.32;;;5.78;;
47669;SDS011;33408;52.062;11.722;2023-03-01T11:20:25;10.35;;;6.20;;
47669;SDS011;33408;52.062;11.722;2023-03-01T11:22:56;10.73;;;7.15;;
47669;SDS011;33408;52.062;11.722;2023-03-01T11:25:26;11.60;;;6.47;;
47669;SDS011;33408;52.062;11.722;2023-03-01T11:27:55;10.65;;;5.63;;
47669;SDS011;33408;52.062;11.722;2023-03-01T11:30:23;11.45;;;6.82;;
47669;SDS011;33408;52.062;11.722;2023-03-01T11:32:58;11.50;;;7.00;;
47669;SDS011;33408;52.062;11.722;2023-03-01T11:35:32;14.38;;;6.93;;
47669;SDS011;33408;52.062;11.722;2023-03-01T11:38:04;13.00;;;7.57;;
47669;SDS011;33408;52.062;11.722;2023-03-01T11:40:43;14.10;;;7.18;;
47669;SDS011;33408;52.062;11.722;2023-03-01T11:43:15;12.95;;;6.85;;
47669;SDS011;33408;52.062;11.722;2023-03-01T11:49:07;10.93;;;6.82;;
47669;SDS011;33408;52.062;11.722;2023-03-01T11:51:48;11.30;;;6.53;;
47669;SDS011;33408;52.062;11.722;2023-03-01T11:54:22;11.13;;;6.45;;
47669;SDS011;33408;52.062;11.722;2023-03-01T11:57:00;10.35;;;6.43;;
47669;SDS011;33408;52.062;11.722;2023-03-01T11:59:35;11.13;;;6.60;;
47669;SDS011;33408;52.062;11.722;2023-03-01T12:02:30;11.15;;;6.68;;
47669;SDS011;33408;52.062;11.722;2023-03-01T12:08:10;10.88;;;7.18;;
47669;SDS011;33408;52.062;11.722;2023-03-01T12:10:44;11.50;;;6.95;;
47669;SDS011;33408;52.062;11.722;2023-03-01T12:13:40;11.80;;;7.20;;
47669;SDS011;33408;52.062;11.722;2023-03-01T12:16:24;11.75;;;5.57;;
47669;SDS011;33408;52.062;11.722;2023-03-01T12:19:06;10.10;;;5.57;;
47669;SDS011;33408;52.062;11.722;2023-03-01T12:21:50;11.90;;;6.32;;
47669;SDS011;33408;52.062;11.722;2023-03-01T12:27:35;9.40;;;5.20;;
47669;SDS011;33408;52.062;11.722;2023-03-01T12:30:23;8.93;;;5.43;;
47669;SDS011;33408;52.062;11.722;2023-03-01T12:33:04;12.30;;;6.30;;
47669;SDS011;33408;52.062;11.722;2023-03-01T12:35:44;13.45;;;8.10;;
47669;SDS011;33408;52.062;11.722;2023-03-01T12:38:23;11.90;;;6.15;;
47669;SDS011;33408;52.062;11.722;2023-03-01T12:41:13;8.70;;;5.05;;
47669;SDS011;33408;52.062;11.722;2023-03-01T12:43:52;10.25;;;5.00;;
47669;SDS011;33408;52.062;11.722;2023-03-01T12:46:33;12.43;;;6.07;;
47669;SDS011;33408;52.062;11.722;2023-03-01T12:49:09;10.27;;;5.72;;
47669;SDS011;33408;52.062;11.722;2023-03-01T12:51:43;10.80;;;5.22;;
47669;SDS011;33408;52.062;11.722;2023-03-01T12:54:19;11.70;;;5.50;;
47669;SDS011;33408;52.062;11.722;2023-03-01T12:56:53;12.45;;;5.80;;
47669;SDS011;33408;52.062;11.722;2023-03-01T12:59:23;10.25;;;5.40;;
47669;SDS011;33408;52.062;11.722;2023-03-01T13:01:56;8.60;;;4.93;;
47669;SDS011;33408;52.062;11.722;2023-03-01T13:04:35;10.27;;;5.70;;
47669;SDS011;33408;52.062;11.722;2023-03-01T13:07:14;8.88;;;4.65;;
47669;SDS011;33408;52.062;11.722;2023-03-01T13:09:51;9.10;;;4.90;;
47669;SDS011;33408;52.062;11.722;2023-03-01T13:12:44;8.13;;;4.75;;
47669;SDS011;33408;52.062;11.722;2023-03-01T13:15:24;14.25;;;6.75;;
47669;SDS011;33408;52.062;11.722;2023-03-01T13:17:52;9.93;;;5.20;;
47669;SDS011;33408;52.062;11.722;2023-03-01T13:20:20;8.70;;;5.50;;
47669;SDS011;33408;52.062;11.722;2023-03-01T13:22:49;10.98;;;5.68;;
47669;SDS011;33408;52.062;11.722;2023-03-01T13:25:28;9.15;;;5.65;;
47669;SDS011;33408;52.062;11.722;2023-03-01T13:30:58;10.60;;;4.82;;
47669;SDS011;33408;52.062;11.722;2023-03-01T13:33:41;8.65;;;4.97;;
47669;SDS011;33408;52.062;11.722;2023-03-01T13:36:09;9.68;;;5.22;;
47669;SDS011;33408;52.062;11.722;2023-03-01T13:38:39;9.18;;;4.82;;
47669;SDS011;33408;52.062;11.722;2023-03-01T13:41:12;7.30;;;4.50;;
47669;SDS011;33408;52.062;11.722;2023-03-01T13:43:40;9.32;;;4.90;;
47669;SDS011;33408;52.062;11.722;2023-03-01T13:46:11;12.00;;;5.10;;
47669;SDS011;33408;52.062;11.722;2023-03-01T13:48:42;10.48;;;4.55;;
47669;SDS011;33408;52.062;11.722;2023-03-01T13:51:11;9.77;;;5.28;;
47669;SDS011;33408;52.062;11.722;2023-03-01T13:53:39;9.43;;;5.63;;
47669;SDS011;33408;52.062;11.722;2023-03-01T13:56:09;9.00;;;4.88;;
47669;SDS011;33408;52.062;11.722;2023-03-01T13:58:44;8.85;;;5.28;;
47669;SDS011;33408;52.062;11.722;2023-03-01T14:01:22;7.93;;;4.40;;
47669;SDS011;33408;52.062;11.722;2023-03-01T14:03:50;10.70;;;4.90;;
47669;SDS011;33408;52.062;11.722;2023-03-01T14:06:19;9.32;;;4.35;;
47669;SDS011;33408;52.062;11.722;2023-03-01T14:08:48;8.13;;;4.88;;
47669;SDS011;33408;52.062;11.722;2023-03-01T14:11:20;10.82;;;5.47;;
47669;SDS011;33408;52.062;11.722;2023-03-01T14:14:14;7.78;;;4.43;;
47669;SDS011;33408;52.062;11.722;2023-03-01T14:16:52;11.40;;;4.35;;
47669;SDS011;33408;52.062;11.722;2023-03-01T14:19:25;7.00;;;3.83;;
47669;SDS011;33408;52.062;11.722;2023-03-01T14:21:58;9.32;;;4.88;;
47669;SDS011;33408;52.062;11.722;2023-03-01T14:24:28;8.32;;;4.30;;
47669;SDS011;33408;52.062;11.722;2023-03-01T14:26:57;8.05;;;4.50;;
47669;SDS011;33408;52.062;11.722;2023-03-01T14:29:27;8.00;;;4.38;;
47669;SDS011;33408;52.062;11.722;2023-03-01T14:32:09;11.27;;;5.70;;
47669;SDS011;33408;52.062;11.722;2023-03-01T14:34:38;7.78;;;4.20;;
47669;SDS011;33408;52.062;11.722;2023-03-01T14:37:09;7.80;;;4.07;;
47669;SDS011;33408;52.062;11.722;2023-03-01T14:39:37;10.52;;;5.43;;
47669;SDS011;33408;52.062;11.722;2023-03-01T14:42:04;9.77;;;4.78;;
47669;SDS011;33408;52.062;11.722;2023-03-01T14:44:31;7.30;;;3.83;;
47669;SDS011;33408;52.062;11.722;2023-03-01T14:47:02;8.45;;;4.20;;
47669;SDS011;33408;52.062;11.722;2023-03-01T14:49:30;8.77;;;4.90;;
47669;SDS011;33408;52.062;11.722;2023-03-01T14:51:59;13.52;;;7.88;;
47669;SDS011;33408;52.062;11.722;2023-03-01T14:54:31;8.85;;;5.18;;
47669;SDS011;33408;52.062;11.722;2023-03-01T14:57:05;9.88;;;4.47;;
47669;SDS011;33408;52.062;11.722;2023-03-01T14:59:32;9.80;;;5.03;;